createdAt,value
2022-09-12T00:00:59.042Z,99.99
2022-09-12T00:01:59.332Z,99.99
2022-09-12T00:02:58.972Z,99.99
2022-09-12T00:03:59.236Z,99.99
2022-09-12T00:04:59.223Z,99.99
2022-09-12T00:05:59.200Z,99.99
2022-09-12T00:06:59.174Z,99.99
2022-09-12T00:07:58.918Z,99.99
2022-09-12T00:08:59.162Z,99.99
2022-09-12T00:09:58.894Z,99.99
2022-09-12T00:10:59.132Z,99.99
2022-09-12T00:11:59.130Z,99.99
2022-09-12T00:12:59.112Z,99.99
2022-09-12T00:13:59.107Z,99.99
2022-09-12T00:14:58.833Z,99.99
2022-09-12T00:15:59.081Z,99.99
2022-09-12T00:16:59.067Z,99.99
2022-09-12T00:17:59.061Z,99.99
2022-09-12T00:18:59.105Z,99.99
2022-09-12T00:19:59.065Z,99.99
2022-09-12T00:20:59.051Z,99.99
2022-09-12T00:21:58.755Z,99.99
2022-09-12T00:22:58.748Z,99.99
2022-09-12T00:23:58.995Z,99.99
2022-09-12T00:24:58.980Z,99.99
2022-09-12T00:25:58.966Z,99.99
2022-09-12T00:26:58.701Z,99.99
2022-09-12T00:27:58.691Z,99.99
2022-09-12T00:28:58.943Z,99.99
2022-09-12T00:29:58.665Z,99.99
2022-09-12T00:30:58.914Z,99.99
2022-09-12T00:31:59.022Z,99.99
2022-09-12T00:32:58.889Z,99.99
2022-09-12T00:33:58.879Z,99.99
2022-09-12T00:34:58.612Z,99.99
2022-09-12T00:35:58.631Z,99.99
2022-09-12T00:36:58.872Z,99.99
2022-09-12T00:37:58.578Z,99.99
2022-09-12T00:38:58.821Z,99.99
2022-09-12T00:39:58.707Z,99.99
2022-09-12T00:40:58.549Z,99.55
2022-09-12T00:41:58.538Z,98.79
2022-09-12T00:42:58.776Z,98.41
2022-09-12T00:43:58.519Z,98.13
2022-09-12T00:44:58.508Z,97.56
2022-09-12T00:45:58.585Z,97.56
2022-09-12T00:46:58.483Z,96.51
2022-09-12T00:47:58.466Z,96.12
2022-09-12T00:48:58.710Z,95.98
2022-09-12T00:49:58.701Z,95.7
2022-09-12T00:50:58.688Z,96.08
2022-09-12T00:51:58.704Z,96.36
2022-09-12T00:52:58.691Z,96.46
2022-09-12T00:53:58.656Z,97.51
2022-09-12T00:54:58.643Z,97.89
2022-09-12T00:55:58.376Z,97.99
2022-09-12T00:56:58.622Z,98.08
2022-09-12T00:57:58.355Z,98.75
2022-09-12T00:58:58.351Z,99.04
2022-09-12T00:59:58.332Z,99.04
2022-09-12T01:00:58.495Z,98.94
2022-09-12T01:01:58.551Z,98.85
2022-09-12T01:02:58.302Z,98.75
2022-09-12T01:03:58.544Z,99.13
2022-09-12T01:04:58.537Z,99.32
2022-09-12T01:05:58.524Z,99.99
2022-09-12T01:06:58.259Z,99.99
2022-09-12T01:07:58.526Z,99.99
2022-09-12T01:08:58.514Z,99.99
2022-09-12T01:09:58.486Z,99.99
2022-09-12T01:10:58.230Z,99.99
2022-09-12T01:11:58.207Z,99.99
2022-09-12T01:12:58.451Z,99.99
2022-09-12T01:13:58.439Z,99.99
2022-09-12T01:14:58.172Z,99.99
2022-09-12T01:15:58.416Z,99.99
2022-09-12T01:16:58.403Z,99.99
2022-09-12T01:17:58.140Z,99.99
2022-09-12T01:18:58.383Z,99.99
2022-09-12T01:19:58.119Z,99.99
2022-09-12T01:20:58.109Z,99.99
2022-09-12T01:21:58.095Z,99.99
2022-09-12T01:22:58.084Z,99.99
2022-09-12T01:23:58.100Z,99.84
2022-09-12T01:24:58.340Z,99.65
2022-09-12T01:25:58.313Z,99.65
2022-09-12T01:26:58.044Z,99.55
2022-09-12T01:27:58.288Z,99.46
2022-09-12T01:28:58.020Z,99.37
2022-09-12T01:29:58.009Z,99.46
2022-09-12T01:30:58.274Z,99.55
2022-09-12T01:31:58.338Z,99.84
2022-09-12T01:32:57.978Z,99.55
2022-09-12T01:33:57.963Z,99.55
2022-09-12T01:34:58.208Z,99.46
2022-09-12T01:35:57.944Z,99.75
2022-09-12T01:36:58.188Z,98.89
2022-09-12T01:37:57.921Z,98.89
2022-09-12T01:38:57.908Z,98.51
2022-09-12T01:39:58.276Z,98.79
2022-09-12T01:40:58.164Z,98.99
2022-09-12T01:41:57.876Z,97.46
2022-09-12T01:42:57.869Z,97.17
2022-09-12T01:43:57.854Z,96.51
2022-09-12T01:44:57.843Z,96.12
2022-09-12T01:45:57.935Z,95.65
2022-09-12T01:46:58.075Z,94.98
2022-09-12T01:47:58.066Z,94.7
2022-09-12T01:48:58.049Z,94.41
2022-09-12T01:49:57.795Z,94.13
2022-09-12T01:50:57.774Z,93.74
2022-09-12T01:51:58.020Z,93.74
2022-09-12T01:52:58.012Z,94.13
2022-09-12T01:53:57.762Z,94.17
2022-09-12T01:54:57.986Z,94.03
2022-09-12T01:55:57.748Z,94.41
2022-09-12T01:56:57.996Z,94.56
2022-09-12T01:57:57.957Z,94.84
2022-09-12T01:58:57.700Z,95.17
2022-09-12T01:59:57.934Z,95.61
2022-09-12T02:00:57.782Z,95.32
2022-09-12T02:01:58.107Z,95.32
2022-09-12T02:02:57.905Z,95.32
2022-09-12T02:03:57.632Z,95.7
2022-09-12T02:04:57.880Z,95.7
2022-09-12T02:05:57.864Z,95.98
2022-09-12T02:06:57.855Z,95.89
2022-09-12T02:07:57.842Z,95.7
2022-09-12T02:08:57.579Z,96.08
2022-09-12T02:09:57.823Z,95.51
2022-09-12T02:10:57.559Z,95.51
2022-09-12T02:11:57.568Z,95.79
2022-09-12T02:12:57.814Z,95.32
2022-09-12T02:13:57.534Z,95.7
2022-09-12T02:14:57.767Z,94.93
2022-09-12T02:15:57.764Z,95.22
2022-09-12T02:16:57.490Z,95.22
2022-09-12T02:17:57.482Z,94.65
2022-09-12T02:18:57.722Z,94.56
2022-09-12T02:19:57.712Z,93.88
2022-09-12T02:20:57.451Z,93.98
2022-09-12T02:21:57.438Z,94.37
2022-09-12T02:22:57.436Z,93.88
2022-09-12T02:23:57.675Z,93.79
2022-09-12T02:24:57.662Z,93.6
2022-09-12T02:25:57.390Z,94.08
2022-09-12T02:26:57.383Z,94.46
2022-09-12T02:27:57.404Z,94.93
2022-09-12T02:28:57.639Z,95.51
2022-09-12T02:29:57.350Z,96.56
2022-09-12T02:30:57.495Z,96.41
2022-09-12T02:31:57.579Z,97.08
2022-09-12T02:32:57.569Z,97.84
2022-09-12T02:33:57.557Z,98.03
2022-09-12T02:34:57.551Z,97.65
2022-09-12T02:35:57.546Z,98.22
2022-09-12T02:36:57.531Z,97.94
2022-09-12T02:37:57.513Z,98.22
2022-09-12T02:38:57.253Z,97.75
2022-09-12T02:39:57.420Z,97.75
2022-09-12T02:40:57.485Z,98.13
2022-09-12T02:41:57.470Z,97.84
2022-09-12T02:42:57.461Z,98.99
2022-09-12T02:43:57.474Z,98.51
2022-09-12T02:44:57.469Z,98.89
2022-09-12T02:45:57.274Z,99.03
2022-09-12T02:46:57.167Z,99.55
2022-09-12T02:47:57.406Z,99.51
2022-09-12T02:48:57.143Z,99.41
2022-09-12T02:49:57.128Z,99.03
2022-09-12T02:50:57.117Z,98.74
2022-09-12T02:51:57.357Z,98.65
2022-09-12T02:52:57.351Z,97.79
2022-09-12T02:53:57.340Z,97.41
2022-09-12T02:54:57.327Z,97.13
2022-09-12T02:55:57.067Z,96.36
2022-09-12T02:56:57.054Z,95.89
2022-09-12T02:57:57.298Z,95.32
2022-09-12T02:58:57.283Z,95.12
2022-09-12T02:59:57.310Z,94.27
2022-09-12T03:00:57.385Z,93.89
2022-09-12T03:01:57.066Z,93.7
2022-09-12T03:02:57.244Z,93.51
2022-09-12T03:03:56.983Z,93.79
2022-09-12T03:04:57.215Z,93.51
2022-09-12T03:05:57.212Z,93.37
2022-09-12T03:06:56.941Z,93.46
2022-09-12T03:07:57.186Z,94.03
2022-09-12T03:08:57.172Z,94.13
2022-09-12T03:09:57.172Z,94.03
2022-09-12T03:10:57.159Z,93.84
2022-09-12T03:11:56.884Z,93.65
2022-09-12T03:12:57.146Z,93.74
2022-09-12T03:13:57.126Z,94.03
2022-09-12T03:14:57.109Z,94.41
2022-09-12T03:15:57.125Z,94.89
2022-09-12T03:16:57.106Z,94.7
2022-09-12T03:17:57.074Z,93.74
2022-09-12T03:18:56.806Z,93.37
2022-09-12T03:19:57.051Z,92.32
2022-09-12T03:20:57.037Z,91.55
2022-09-12T03:21:56.777Z,91.55
2022-09-12T03:22:57.015Z,90.31
2022-09-12T03:23:57.007Z,89.65
2022-09-12T03:24:56.992Z,88.98
2022-09-12T03:25:56.987Z,88.79
2022-09-12T03:26:56.717Z,88.51
2022-09-12T03:27:56.963Z,87.74
2022-09-12T03:28:56.692Z,87.93
2022-09-12T03:29:56.716Z,87.84
2022-09-12T03:30:57.052Z,87.88
2022-09-12T03:31:56.947Z,87.88
2022-09-12T03:32:56.927Z,87.79
2022-09-12T03:49:54.336Z,89.36
2022-09-12T03:50:54.021Z,89.17
2022-09-12T03:51:54.261Z,89.46
2022-09-12T03:52:54.245Z,89.36
2022-09-12T03:53:54.227Z,89.26
2022-09-12T03:54:53.960Z,89.46
2022-09-12T03:55:54.204Z,89.84
2022-09-12T03:56:54.193Z,89.75
2022-09-12T03:57:54.178Z,90.31
2022-09-12T03:58:53.914Z,91.08
2022-09-12T03:59:54.154Z,91.94
2022-09-12T04:00:54.029Z,92.13
2022-09-12T04:01:54.305Z,92.41
2022-09-12T04:02:54.117Z,92.79
2022-09-12T04:03:54.105Z,93.55
2022-09-12T04:04:54.096Z,93.65
2022-09-12T04:05:54.128Z,93.74
2022-09-12T04:06:53.815Z,93.6
2022-09-12T04:07:53.803Z,93.89
2022-09-12T04:08:53.793Z,93.41
2022-09-12T04:09:53.776Z,93.03
2022-09-12T04:10:53.765Z,92.65
2022-09-12T04:11:53.753Z,91.99
2022-09-12T04:12:53.999Z,91.03
2022-09-12T04:13:54.295Z,90.94
2022-09-12T04:14:53.724Z,89.98
2022-09-12T04:15:53.711Z,90.46
2022-09-12T04:16:54.078Z,90.27
2022-09-12T04:17:53.939Z,90.17
2022-09-12T04:18:53.674Z,90.56
2022-09-12T04:19:53.914Z,90.65
2022-09-12T04:20:53.905Z,90.27
2022-09-12T04:21:53.945Z,90.27
2022-09-12T04:22:53.625Z,90.36
2022-09-12T04:23:53.867Z,90.08
2022-09-12T04:24:53.857Z,89.89
2022-09-12T04:25:53.590Z,90.17
2022-09-12T04:26:53.848Z,89.61
2022-09-12T04:27:53.820Z,89.79
2022-09-12T04:28:53.560Z,89.41
2022-09-12T04:29:53.797Z,88.84
2022-09-12T04:30:53.939Z,88.18
2022-09-12T04:31:53.523Z,87.84
2022-09-12T04:32:53.512Z,87.27
2022-09-12T04:33:53.502Z,87.17
2022-09-12T04:34:53.489Z,86.88
2022-09-12T04:35:53.479Z,86.79
2022-09-12T04:36:53.467Z,86.32
2022-09-12T04:37:53.761Z,86.12
2022-09-12T04:38:53.698Z,86.12
2022-09-12T04:39:53.601Z,86.6
2022-09-12T04:40:53.674Z,86.69
2022-09-12T04:41:53.413Z,87.17
2022-09-12T04:42:53.399Z,87.07
2022-09-12T04:43:53.403Z,88.12
2022-09-12T04:44:53.377Z,88.12
2022-09-12T04:45:53.438Z,88.7
2022-09-12T04:46:53.356Z,89.36
2022-09-12T04:47:53.344Z,89.94
2022-09-12T04:48:58.845Z,90.31
2022-09-12T04:49:53.321Z,90.7
2022-09-12T04:50:53.309Z,90.98
2022-09-12T04:51:53.301Z,91.27
2022-09-12T04:52:53.297Z,91.74
2022-09-12T04:53:53.583Z,91.55
2022-09-12T04:54:53.525Z,92.13
2022-09-12T04:55:53.514Z,92.27
2022-09-12T04:56:53.243Z,92.18
2022-09-12T04:57:53.234Z,91.13
2022-09-12T04:58:53.478Z,91.89
2022-09-12T04:59:53.473Z,91.51
2022-09-12T05:00:53.535Z,91.6
2022-09-12T05:01:53.338Z,92.18
2022-09-12T05:02:53.432Z,92.08
2022-09-12T05:03:53.423Z,91.51
2022-09-12T05:04:53.414Z,90.65
2022-09-12T05:05:58.006Z,90.27
2022-09-12T05:06:53.456Z,89.89
2022-09-12T05:07:53.379Z,89.22
2022-09-12T05:08:53.364Z,87.98
2022-09-12T05:09:53.451Z,87.89
2022-09-12T05:10:53.350Z,87.07
2022-09-12T05:12:08.749Z,86.75
2022-09-12T05:12:53.321Z,86.51
2022-09-12T05:13:53.057Z,86.22
2022-09-12T05:14:53.044Z,85.64
2022-09-12T05:15:53.291Z,85.55
2022-09-12T05:16:53.519Z,85.74
2022-09-12T05:17:53.266Z,85.64
2022-09-12T05:18:53.252Z,85.27
2022-09-12T05:19:53.253Z,85.46
2022-09-12T05:20:52.975Z,85.84
2022-09-12T05:21:53.223Z,85.64
2022-09-12T05:22:53.210Z,86.22
2022-09-12T05:23:52.948Z,85.84
2022-09-12T05:24:53.306Z,85.93
2022-09-12T05:25:53.230Z,85.93
2022-09-12T05:26:52.913Z,85.93
2022-09-12T05:27:53.160Z,86.22
2022-09-12T05:28:52.891Z,86.41
2022-09-12T05:29:53.140Z,86.12
2022-09-12T05:30:53.016Z,85.64
2022-09-12T05:31:53.115Z,85.46
2022-09-12T05:32:53.105Z,86.32
2022-09-12T05:33:53.164Z,85.93
2022-09-12T05:34:53.083Z,86.12
2022-09-12T05:35:53.071Z,86.22
2022-09-12T05:36:52.806Z,86.36
2022-09-12T05:37:53.051Z,86.36
2022-09-12T05:38:52.786Z,86.55
2022-09-12T05:39:53.122Z,86.26
2022-09-12T05:40:52.765Z,86.93
2022-09-12T05:41:53.051Z,86.45
2022-09-12T05:42:52.998Z,86.65
2022-09-12T05:43:52.984Z,86.74
2022-09-12T05:44:52.716Z,86.93
2022-09-12T05:45:52.788Z,87.5
2022-09-12T05:46:52.702Z,87.21
2022-09-12T05:47:52.685Z,87.88
2022-09-12T05:48:58.262Z,87.98
2022-09-12T05:49:52.919Z,87.88
2022-09-12T05:50:52.911Z,87.98
2022-09-12T05:51:52.923Z,88.26
2022-09-12T05:52:52.659Z,88.74
2022-09-12T05:53:52.619Z,88.74
2022-09-12T05:54:52.612Z,88.36
2022-09-12T05:55:52.600Z,88.74
2022-09-12T05:56:52.844Z,88.6
2022-09-12T05:57:52.881Z,88.93
2022-09-12T05:58:52.825Z,88.74
2022-09-12T05:59:52.564Z,88.89
2022-09-12T06:00:52.805Z,89.03
2022-09-12T06:01:52.792Z,88.79
2022-09-12T06:02:52.523Z,88.64
2022-09-12T06:03:52.766Z,88.89
2022-09-12T06:04:52.760Z,88.89
2022-09-12T06:05:53.227Z,88.84
2022-09-12T06:06:52.486Z,88.84
2022-09-12T06:07:52.726Z,88.74
2022-09-12T06:08:52.731Z,88.84
2022-09-12T06:09:52.703Z,88.31
2022-09-12T06:10:52.694Z,88.26
2022-09-12T06:11:52.425Z,88.26
2022-09-12T06:12:52.676Z,88.84
2022-09-12T06:13:52.722Z,87.98
2022-09-12T06:14:52.663Z,88.26
2022-09-12T06:15:52.384Z,87.93
2022-09-12T06:16:52.750Z,87.79
2022-09-12T06:17:53.931Z,87.69
2022-09-12T06:18:52.609Z,87.88
2022-09-12T06:19:52.596Z,88.07
2022-09-12T06:20:52.334Z,87.79
2022-09-12T06:21:52.577Z,88.07
2022-09-12T06:22:52.315Z,87.79
2022-09-12T06:23:52.303Z,87.31
2022-09-12T06:24:57.814Z,86.93
2022-09-12T06:25:52.543Z,86.55
2022-09-12T06:26:52.522Z,85.69
2022-09-12T06:27:52.260Z,84.92
2022-09-12T06:28:52.253Z,83.59
2022-09-12T06:29:52.540Z,83.35
2022-09-12T06:30:52.398Z,82.4
2022-09-12T06:31:52.471Z,81.25
2022-09-12T06:32:52.467Z,80.87
2022-09-12T06:33:52.450Z,79.82
2022-09-12T06:34:52.184Z,78.86
2022-09-12T06:35:52.177Z,78.72
2022-09-12T06:36:52.164Z,77.95
2022-09-12T06:37:52.416Z,77.19
2022-09-12T06:38:52.143Z,76.65
2022-09-12T06:39:52.251Z,76.08
2022-09-12T06:40:52.377Z,76.18
2022-09-12T06:41:52.370Z,76.37
2022-09-12T06:42:52.103Z,75.98
2022-09-12T06:43:52.093Z,76.98
2022-09-12T06:44:52.082Z,77.36
2022-09-12T06:45:52.584Z,78.13
2022-09-12T06:46:52.318Z,78.03
2022-09-12T06:47:52.054Z,78.6
2022-09-12T06:48:52.136Z,78.99
2022-09-12T06:49:52.035Z,79.27
2022-09-12T06:50:52.285Z,79.31
2022-09-12T06:51:52.017Z,79.79
2022-09-12T06:52:52.005Z,79.5
2022-09-12T06:53:51.995Z,80.17
2022-09-12T06:54:52.244Z,80.74
2022-09-12T06:55:52.240Z,81.13
2022-09-12T06:56:52.227Z,81.79
2022-09-12T06:57:51.965Z,82.28
2022-09-12T06:58:52.210Z,82.6
2022-09-12T06:59:51.943Z,83.27
2022-09-12T07:00:53.997Z,83.75
2022-09-12T07:01:52.298Z,83.56
2022-09-12T07:02:52.168Z,83.75
2022-09-12T07:03:51.910Z,84.13
2022-09-12T07:04:51.901Z,84.99
2022-09-12T07:05:51.894Z,85.28
2022-09-12T07:06:51.884Z,85.66
2022-09-12T07:07:52.127Z,86.61
2022-09-12T07:08:51.862Z,87.66
2022-09-12T07:09:52.263Z,88.15
2022-09-12T07:10:51.847Z,89.34
2022-09-12T07:11:51.844Z,90.39
2022-09-12T07:12:51.833Z,90.87
2022-09-12T07:13:51.828Z,90.67
2022-09-12T07:14:52.074Z,91.63
2022-09-12T07:15:51.806Z,92.3
2022-09-12T07:16:51.933Z,92.49
2022-09-12T07:17:52.100Z,93.16
2022-09-12T07:18:51.787Z,93.84
2022-09-12T07:19:52.031Z,94.98
2022-09-12T07:20:51.765Z,95.36
2022-09-12T07:21:55.295Z,95.31
2022-09-12T07:22:51.751Z,96.18
2022-09-12T07:23:51.743Z,97.04
2022-09-12T07:24:51.991Z,97.71
2022-09-12T07:25:51.981Z,98.66
2022-09-12T07:26:51.975Z,99.19
2022-09-12T07:27:53.479Z,99.99
2022-09-12T07:28:51.984Z,99.99
2022-09-12T07:29:51.947Z,99.99
2022-09-12T07:30:52.050Z,99.99
2022-09-12T07:31:51.679Z,99.99
2022-09-12T07:32:51.929Z,99.99
2022-09-12T07:33:56.797Z,99.99
2022-09-12T07:34:51.915Z,99.99
2022-09-12T07:35:51.910Z,99.99
2022-09-12T07:36:51.899Z,99.99
2022-09-12T07:37:51.644Z,99.99
2022-09-12T07:38:54.518Z,99.99
2022-09-12T07:39:51.953Z,99.99
2022-09-12T07:40:51.872Z,99.99
2022-09-12T07:41:51.607Z,99.99
2022-09-12T07:42:51.617Z,99.99
2022-09-12T07:43:51.847Z,99.99
2022-09-12T07:44:51.586Z,99.99
2022-09-12T07:45:51.858Z,99.99
2022-09-12T07:46:51.573Z,99.99
2022-09-12T07:47:51.820Z,99.99
2022-09-12T07:48:51.574Z,99.99
2022-09-12T07:49:51.854Z,99.99
2022-09-12T07:50:51.550Z,99.99
2022-09-12T07:51:51.844Z,99.99
2022-09-12T07:52:51.786Z,99.99
2022-09-12T07:53:51.522Z,99.99
2022-09-12T07:54:51.519Z,99.99
2022-09-12T07:55:51.766Z,99.99
2022-09-12T07:56:51.762Z,99.99
2022-09-12T07:57:51.498Z,99.99
2022-09-12T07:58:51.492Z,99.99
2022-09-12T07:59:55.591Z,99.99
2022-09-12T08:00:51.734Z,99.99
2022-09-12T08:01:51.826Z,99.99
2022-09-12T08:02:51.819Z,99.99
2022-09-12T08:03:51.714Z,99.99
2022-09-12T08:04:51.705Z,99.99
2022-09-12T08:05:51.748Z,99.99
2022-09-12T08:06:51.691Z,99.99
2022-09-12T08:07:54.657Z,99.99
2022-09-12T08:08:51.673Z,99.99
2022-09-12T08:09:51.419Z,99.99
2022-09-12T08:10:51.667Z,99.99
2022-09-12T08:11:51.669Z,99.99
2022-09-12T08:12:51.647Z,99.99
2022-09-12T08:13:57.507Z,99.99
2022-09-12T08:14:51.387Z,99.99
2022-09-12T08:15:51.773Z,99.99
2022-09-12T08:16:51.621Z,99.99
2022-09-12T08:17:51.621Z,99.99
2022-09-12T08:18:51.353Z,99.99
2022-09-12T08:19:51.606Z,99.99
2022-09-12T08:20:51.340Z,99.99
2022-09-12T08:21:51.635Z,99.99
2022-09-12T08:22:51.325Z,99.99
2022-09-12T08:23:51.321Z,99.99
2022-09-12T08:24:51.568Z,99.99
2022-09-12T08:25:51.308Z,99.99
2022-09-12T08:26:51.300Z,99.99
2022-09-12T08:27:51.297Z,99.99
2022-09-12T08:28:51.287Z,99.99
2022-09-12T08:29:51.536Z,99.99
2022-09-12T08:30:51.606Z,99.99
2022-09-12T08:31:56.599Z,99.99
2022-09-12T08:32:51.263Z,99.99
2022-09-12T08:33:51.256Z,99.99
2022-09-12T08:34:51.250Z,99.99
2022-09-12T08:35:51.247Z,99.99
2022-09-12T08:36:51.237Z,99.99
2022-09-12T08:37:51.537Z,99.99
2022-09-12T08:38:51.481Z,98.24
2022-09-12T08:39:51.532Z,97.04
2022-09-12T08:40:51.473Z,95.31
2022-09-12T08:41:51.212Z,93.87
2022-09-12T08:42:51.202Z,91.28
2022-09-12T08:43:56.650Z,88.69
2022-09-12T08:44:51.446Z,86.05
2022-09-12T08:45:51.256Z,86.05
2022-09-12T08:46:51.438Z,85.85
2022-09-12T08:47:51.437Z,84.7
2022-09-12T08:48:51.429Z,82.87
2022-09-12T08:49:51.424Z,82.3
2022-09-12T08:50:52.535Z,81.24
2022-09-12T08:51:51.158Z,80.76
2022-09-12T08:52:51.149Z,80.38
2022-09-12T08:53:51.449Z,80.57
2022-09-12T08:54:51.401Z,80.28
2022-09-12T08:55:51.392Z,79.52
2022-09-12T08:56:51.132Z,79.22
2022-09-12T08:57:51.377Z,79.28
2022-09-12T08:58:51.376Z,80.43
2022-09-12T08:59:51.364Z,79.76
2022-09-12T09:00:51.108Z,79.91
2022-09-12T09:01:51.509Z,80.4
2022-09-12T09:02:51.275Z,80.68
2022-09-12T09:03:51.090Z,81.12
2022-09-12T09:04:51.092Z,81.12
2022-09-12T09:05:51.332Z,81.56
2022-09-12T09:06:51.071Z,82.04
2022-09-12T09:07:51.321Z,82.62
2022-09-12T09:08:51.065Z,82.62
2022-09-12T09:09:51.364Z,82.23
2022-09-12T09:10:51.062Z,82.52
2022-09-12T09:11:51.296Z,83.25
2022-09-12T09:12:51.292Z,83.34
2022-09-12T09:13:51.029Z,84.15
2022-09-12T09:14:51.285Z,83.95
2022-09-12T09:15:51.202Z,83.81
2022-09-12T09:16:51.020Z,83.61
2022-09-12T09:17:51.288Z,83.85
2022-09-12T09:18:51.005Z,83.85
2022-09-12T09:19:53.173Z,83.31
2022-09-12T09:20:51.246Z,82.16
2022-09-12T09:21:51.237Z,81.01
2022-09-12T09:22:50.979Z,80.76
2022-09-12T09:23:51.226Z,80.38
2022-09-12T09:24:50.965Z,78.27
2022-09-12T09:25:51.275Z,78.08
2022-09-12T09:26:51.211Z,77.21
2022-09-12T09:27:50.950Z,76.44
2022-09-12T09:28:51.203Z,75.9
2022-09-12T09:29:51.195Z,74.85
2022-09-12T09:30:51.334Z,74.08
2022-09-12T09:31:50.927Z,74.08
2022-09-12T09:32:50.923Z,73.88
2022-09-12T09:33:50.915Z,73.41
2022-09-12T09:34:51.319Z,73.35
2022-09-12T09:35:51.164Z,72.73
2022-09-12T09:36:51.160Z,69.98
2022-09-12T09:37:51.669Z,69.31
2022-09-12T09:38:51.150Z,70.27
2022-09-12T09:39:51.250Z,69.98
2022-09-12T09:40:51.139Z,68.92
2022-09-12T09:41:51.183Z,68.35
2022-09-12T09:42:51.130Z,68.35
2022-09-12T09:43:51.127Z,68.35
2022-09-12T09:44:50.864Z,67.68
2022-09-12T09:45:51.333Z,67.03
2022-09-12T09:46:51.113Z,67.58
2022-09-12T09:47:50.843Z,67.77
2022-09-12T09:48:51.095Z,67.68
2022-09-12T09:49:51.099Z,68.29
2022-09-12T09:50:50.858Z,67.61
2022-09-12T09:51:51.084Z,67.32
2022-09-12T09:52:51.079Z,67.99
2022-09-12T09:53:50.825Z,67.9
2022-09-12T09:54:51.069Z,67.71
2022-09-12T09:55:51.068Z,67.42
2022-09-12T09:56:51.062Z,68.38
2022-09-12T09:57:51.109Z,68.29
2022-09-12T09:58:50.796Z,68.15
2022-09-12T09:59:50.793Z,69.12
2022-09-12T10:00:54.887Z,69.27
2022-09-12T10:01:51.154Z,70.04
2022-09-12T10:02:50.844Z,70.2
2022-09-12T10:03:50.851Z,71.03
2022-09-12T10:04:50.778Z,71.7
2022-09-12T10:05:51.034Z,71.98
2022-09-12T10:06:50.759Z,72.33
2022-09-12T10:07:50.754Z,73.49
2022-09-12T10:08:51.003Z,73.58
2022-09-12T10:09:51.048Z,74.16
2022-09-12T10:10:50.994Z,74.1
2022-09-12T10:11:50.991Z,74.01
2022-09-12T10:12:50.985Z,73.94
2022-09-12T10:13:51.028Z,73.94
2022-09-12T10:14:50.972Z,73.88
2022-09-12T10:15:51.116Z,72.77
2022-09-12T10:16:50.709Z,72.38
2022-09-12T10:17:50.706Z,71.33
2022-09-12T10:18:50.974Z,70.27
2022-09-12T10:20:27.979Z,69.24
2022-09-12T10:20:50.945Z,69.06
2022-09-12T10:21:50.692Z,68.29
2022-09-12T10:22:50.683Z,68.48
2022-09-12T10:23:50.843Z,68.19
2022-09-12T10:24:50.679Z,68.15
2022-09-12T10:25:50.932Z,68.92
2022-09-12T10:26:54.574Z,69.02
2022-09-12T10:27:50.659Z,69.46
2022-09-12T10:28:50.937Z,69.37
2022-09-12T10:29:51.003Z,69.56
2022-09-12T10:30:51.032Z,69.43
2022-09-12T10:31:50.903Z,70.39
2022-09-12T10:32:50.900Z,70.01
2022-09-12T10:33:51.150Z,69.81
2022-09-12T10:34:50.877Z,69.81
2022-09-12T10:35:50.880Z,69.78
2022-09-12T10:36:50.621Z,70.64
2022-09-12T10:37:54.404Z,71.89
2022-09-12T10:38:50.861Z,71.89
2022-09-12T10:39:50.948Z,72.18
2022-09-12T10:40:50.599Z,72.18
2022-09-12T10:41:50.590Z,71.7
2022-09-12T10:42:50.880Z,70.39
2022-09-12T10:43:50.666Z,69.91
2022-09-12T10:44:50.577Z,67.7
2022-09-12T10:45:50.991Z,66.58
2022-09-12T10:46:50.569Z,64.47
2022-09-12T10:47:50.562Z,64.37
2022-09-12T10:48:50.826Z,63.41
2022-09-12T10:49:50.619Z,63.83
2022-09-12T10:50:50.551Z,62.48
2022-09-12T10:51:50.547Z,62.1
2022-09-12T10:52:50.791Z,61.81
2022-09-12T10:53:50.910Z,61.14
2022-09-12T10:54:50.786Z,60.75
2022-09-12T10:55:50.523Z,61.07
2022-09-12T10:56:50.518Z,60.88
2022-09-12T10:57:50.771Z,60.78
2022-09-12T10:58:50.515Z,60.78
2022-09-12T10:59:50.575Z,60.91
2022-09-12T11:00:50.777Z,60.81
2022-09-12T11:01:50.965Z,60.81
2022-09-12T11:02:50.882Z,61.42
2022-09-12T11:03:50.687Z,61.8
2022-09-12T11:04:50.486Z,62.29
2022-09-12T11:05:50.485Z,61.52
2022-09-12T11:06:50.478Z,60.77
2022-09-12T11:07:50.469Z,61.25
2022-09-12T11:08:50.753Z,61.25
2022-09-12T11:09:50.460Z,61.25
2022-09-12T11:10:50.715Z,61.16
2022-09-12T11:11:50.706Z,60.58
2022-09-12T11:12:50.710Z,60.23
2022-09-12T11:13:50.890Z,60.32
2022-09-12T11:14:50.700Z,60.23
2022-09-12T11:15:50.809Z,60.23
2022-09-12T11:16:50.695Z,59.94
2022-09-12T11:17:50.740Z,60.32
2022-09-12T11:18:50.431Z,60.3
2022-09-12T11:19:50.425Z,60.58
2022-09-12T11:20:50.683Z,60.94
2022-09-12T11:21:50.673Z,60.65
2022-09-12T11:22:50.673Z,60.81
2022-09-12T11:23:50.409Z,61.29
2022-09-12T11:24:50.410Z,60.84
2022-09-12T11:25:50.659Z,61.52
2022-09-12T11:26:50.658Z,61.32
2022-09-12T11:27:50.409Z,61.13
2022-09-12T11:28:50.655Z,60.77
2022-09-12T11:29:50.651Z,60.77
2022-09-12T11:30:50.513Z,59.81
2022-09-12T11:31:50.647Z,59.52
2022-09-12T11:32:50.643Z,59.81
2022-09-12T11:33:52.400Z,59.23
2022-09-12T11:34:50.373Z,59.23
2022-09-12T11:35:55.756Z,59.04
2022-09-12T11:36:50.376Z,59.43
2022-09-12T11:37:50.363Z,58.85
2022-09-12T11:38:50.612Z,58.95
2022-09-12T11:39:55.722Z,58.17
2022-09-12T11:40:50.350Z,57.4
2022-09-12T11:41:50.607Z,57.47
2022-09-12T11:42:50.599Z,57.28
2022-09-12T11:43:50.741Z,57.09
2022-09-12T11:44:50.339Z,58.22
2022-09-12T11:45:50.662Z,58.72
2022-09-12T11:46:54.095Z,59.11
2022-09-12T11:47:50.599Z,58.63
2022-09-12T11:48:50.631Z,58.24
2022-09-12T11:49:50.628Z,58.15
2022-09-12T11:50:50.320Z,57.76
2022-09-12T11:51:50.581Z,57.37
2022-09-12T11:52:50.311Z,55.55
2022-09-12T11:53:50.726Z,54.94
2022-09-12T11:54:55.529Z,55.62
2022-09-12T11:55:50.559Z,56.29
2022-09-12T11:56:50.308Z,57.83
2022-09-12T11:57:50.554Z,58.5
2022-09-12T11:58:50.734Z,57.73
2022-09-12T11:59:50.551Z,57.54
2022-09-12T12:00:50.291Z,58.31
2022-09-12T12:01:51.284Z,58.31
2022-09-12T12:02:50.414Z,59.08
2022-09-12T12:03:50.703Z,59.27
2022-09-12T12:04:50.525Z,59.97
2022-09-12T12:05:50.577Z,60.27
2022-09-12T12:06:50.517Z,59.88
2022-09-12T12:07:50.261Z,60.27
2022-09-12T12:08:50.783Z,59.97
2022-09-12T12:09:50.511Z,59.69
2022-09-12T12:10:50.256Z,58.82
2022-09-12T12:11:50.253Z,58.15
2022-09-12T12:12:50.246Z,58.63
2022-09-12T12:13:50.247Z,58.72
2022-09-12T12:14:50.235Z,58.53
2022-09-12T12:15:50.295Z,57.95
2022-09-12T12:16:50.228Z,57.37
2022-09-12T12:17:50.229Z,56.9
2022-09-12T12:18:50.621Z,56.8
2022-09-12T12:19:50.477Z,57.28
2022-09-12T12:20:50.212Z,57.18
2022-09-12T12:21:50.513Z,56.99
2022-09-12T12:22:50.470Z,56.8
2022-09-12T12:23:50.238Z,56.41
2022-09-12T12:24:50.461Z,56.48
2022-09-12T12:25:50.450Z,55.83
2022-09-12T12:26:50.450Z,55.9
2022-09-12T12:27:50.448Z,55.65
2022-09-12T12:28:50.635Z,54.49
2022-09-12T12:29:50.437Z,54.65
2022-09-12T12:30:50.297Z,54.94
2022-09-12T12:31:50.430Z,55.23
2022-09-12T12:32:50.431Z,56
2022-09-12T12:33:50.424Z,57.03
2022-09-12T12:34:50.425Z,57.32
2022-09-12T12:35:50.170Z,57.8
2022-09-12T12:36:50.167Z,57.6
2022-09-12T12:37:50.460Z,57.9
2022-09-12T12:38:50.408Z,58.47
2022-09-12T12:39:50.849Z,58.57
2022-09-12T12:40:50.400Z,57.51
2022-09-12T12:41:50.141Z,57.32
2022-09-12T12:42:50.139Z,56.74
2022-09-12T12:43:50.579Z,56.84
2022-09-12T12:44:50.132Z,57.32
2022-09-12T12:45:50.470Z,57.22
2022-09-12T12:46:50.124Z,56.74
2022-09-12T12:47:50.118Z,56.58
2022-09-12T12:48:50.115Z,55.4
2022-09-12T12:49:50.363Z,55.62
2022-09-12T12:50:50.111Z,55.33
2022-09-12T12:51:50.375Z,55.62
2022-09-12T12:52:50.110Z,54.65
2022-09-12T12:53:50.505Z,53.69
2022-09-12T12:54:50.095Z,52.73
2022-09-12T12:55:50.342Z,51.29
2022-09-12T12:56:50.340Z,51.26
2022-09-12T12:57:50.081Z,51.64
2022-09-12T12:58:50.080Z,54.05
2022-09-12T12:59:50.328Z,54.43
2022-09-12T13:00:50.071Z,55.4
2022-09-12T13:01:56.695Z,55.52
2022-09-12T13:02:50.270Z,55.52
2022-09-12T13:03:50.247Z,54.94
2022-09-12T13:04:50.312Z,54.46
2022-09-12T13:05:50.319Z,54.46
2022-09-12T13:06:50.059Z,54.27
2022-09-12T13:07:50.297Z,54.27
2022-09-12T13:08:50.244Z,53.78
2022-09-12T13:09:50.339Z,53.02
2022-09-12T13:10:50.697Z,53.31